Tontitown, Arkansas
Current Conditions -  °F | °C
As of 8:48 PM on Thursday 20 Nov 2014 (Local Time) from KASG Reporting Station
Clear Clear  
Wind Chill: 38°   Ceiling: Unl
Heat Index: 41°   Visibility: 10mi
Dew Point: 28°   Wind: 5mph
Humidity: 61%   Direction: 90°E
Pressure: 30.16"   Gusts: NA
Location:  36.18°N, 94.23°W
Report Text: KASG 210248Z 09004KT 10SM SKC 05/M02 A3016 RMK LAST
Loading
Personal Weather Stations






























Interactive Weather Map New forecast layout! Learn more

10-Day Weather Forecast

Advertisements
Track Severe Weather on mobile